createdAt,value
2022-08-25T00:00:33.385Z,2.70
2022-08-25T00:01:32.713Z,2.70
2022-08-25T00:02:33.080Z,2.60
2022-08-25T00:03:35.925Z,2.70
2022-08-25T00:04:34.594Z,2.90
2022-08-25T00:05:33.840Z,2.80
2022-08-25T00:06:34.116Z,2.80
2022-08-25T00:07:34.334Z,2.80
2022-08-25T00:08:34.599Z,2.90
2022-08-25T00:09:35.003Z,2.80
2022-08-25T00:10:35.268Z,2.80
2022-08-25T00:11:35.473Z,2.80
2022-08-25T00:12:35.724Z,2.90
2022-08-25T00:13:35.934Z,2.90
2022-08-25T00:14:36.281Z,2.90
2022-08-25T00:15:36.618Z,2.90
2022-08-25T00:16:36.860Z,3.00
2022-08-25T00:17:37.045Z,3.00
2022-08-25T00:18:37.355Z,2.90
2022-08-25T00:19:37.481Z,2.80
2022-08-25T00:20:37.856Z,2.90
2022-08-25T00:21:39.128Z,2.80
2022-08-25T00:22:38.495Z,2.80
2022-08-25T00:23:38.843Z,2.90
2022-08-25T00:24:39.129Z,2.80
2022-08-25T00:25:39.403Z,2.80
2022-08-25T00:26:39.742Z,2.80
2022-08-25T00:27:40.056Z,2.90
2022-08-25T00:28:40.353Z,2.60
2022-08-25T00:29:40.602Z,2.70
2022-08-25T00:30:40.915Z,2.70
2022-08-25T00:31:41.216Z,2.80
2022-08-25T00:32:41.490Z,2.70
2022-08-25T00:33:41.739Z,2.70
2022-08-25T00:34:42.016Z,2.60
2022-08-25T00:35:42.302Z,2.80
2022-08-25T00:36:42.593Z,2.70
2022-08-25T00:37:42.968Z,2.60
2022-08-25T00:38:43.225Z,2.80
2022-08-25T00:39:43.516Z,2.90
2022-08-25T00:40:43.803Z,2.80
2022-08-25T00:41:44.089Z,2.80
2022-08-25T00:42:44.363Z,2.80
2022-08-25T00:43:44.706Z,3.00
2022-08-25T00:44:45.287Z,2.60
2022-08-25T00:45:45.135Z,2.80
2022-08-25T00:46:45.486Z,2.70
2022-08-25T00:47:45.727Z,2.90
2022-08-25T00:48:46.027Z,2.80
2022-08-25T00:49:46.267Z,2.90
2022-08-25T00:50:46.534Z,2.90
2022-08-25T00:51:46.871Z,2.90
2022-08-25T00:52:47.173Z,3.00
2022-08-25T00:53:47.473Z,2.80
2022-08-25T00:54:48.142Z,2.90
2022-08-25T00:55:48.017Z,3.20
2022-08-25T00:56:48.266Z,2.80
2022-08-25T00:57:48.536Z,3.20
2022-08-25T00:58:48.767Z,3.50
2022-08-25T00:59:49.109Z,3.00
2022-08-25T01:00:49.287Z,3.50
2022-08-25T01:01:49.636Z,3.40
2022-08-25T01:02:50.004Z,3.20
2022-08-25T01:03:50.262Z,3.30
2022-08-25T01:04:50.478Z,3.20
2022-08-25T01:05:50.812Z,3.20
2022-08-25T01:06:51.047Z,2.90
2022-08-25T01:07:51.692Z,2.80
2022-08-25T01:08:51.662Z,3.00
2022-08-25T01:09:51.911Z,3.00
2022-08-25T01:10:52.221Z,3.10
2022-08-25T01:11:52.496Z,3.10
2022-08-25T01:12:52.727Z,3.00
2022-08-25T01:13:53.047Z,3.40
2022-08-25T01:14:53.429Z,2.90
2022-08-25T01:15:53.724Z,3.20
2022-08-25T01:16:54.164Z,3.20
2022-08-25T01:17:54.293Z,3.10
2022-08-25T01:18:54.531Z,3.00
2022-08-25T01:19:54.820Z,3.30
2022-08-25T01:20:55.094Z,3.30
2022-08-25T01:21:55.442Z,3.30
2022-08-25T01:22:55.644Z,3.20
2022-08-25T01:23:55.973Z,3.50
2022-08-25T01:24:56.211Z,3.10
2022-08-25T01:25:56.549Z,3.00
2022-08-25T01:26:56.823Z,3.50
2022-08-25T01:27:57.115Z,3.20
2022-08-25T01:28:57.394Z,3.30
2022-08-25T01:29:57.846Z,3.20
2022-08-25T01:30:58.081Z,3.20
2022-08-25T01:31:58.270Z,3.20
2022-08-25T01:32:58.609Z,3.30
2022-08-25T01:33:58.893Z,3.60
2022-08-25T01:34:59.188Z,3.30
2022-08-25T01:35:59.465Z,3.10
2022-08-25T01:36:59.776Z,3.30
2022-08-25T01:38:00.255Z,3.30
2022-08-25T01:39:00.389Z,3.50
2022-08-25T01:40:00.774Z,3.20
2022-08-25T01:41:00.997Z,3.50
2022-08-25T01:42:01.385Z,3.40
2022-08-25T01:43:01.698Z,3.40
2022-08-25T01:44:01.955Z,3.60
2022-08-25T01:45:02.220Z,3.40
2022-08-25T01:46:02.604Z,3.40
2022-08-25T01:47:02.909Z,3.40
2022-08-25T01:48:03.311Z,3.20
2022-08-25T01:49:06.705Z,3.20
2022-08-25T01:50:03.728Z,3.30
2022-08-25T01:51:04.018Z,3.20
2022-08-25T01:52:04.268Z,3.50
2022-08-25T01:53:04.636Z,3.50
2022-08-25T01:54:04.851Z,3.50
2022-08-25T01:55:05.136Z,3.40
2022-08-25T01:56:05.418Z,3.30
2022-08-25T01:57:05.768Z,3.40
2022-08-25T01:58:06.245Z,3.40
2022-08-25T01:59:06.340Z,3.10
2022-08-25T02:00:06.782Z,3.40
2022-08-25T02:01:06.993Z,3.50
2022-08-25T02:02:07.244Z,3.50
2022-08-25T02:03:15.799Z,3.50
2022-08-25T02:04:08.744Z,3.60
2022-08-25T02:05:07.969Z,3.50
2022-08-25T02:06:08.291Z,3.70
2022-08-25T02:07:08.591Z,3.60
2022-08-25T02:08:08.875Z,3.50
2022-08-25T02:09:09.198Z,3.50
2022-08-25T02:10:09.393Z,3.70
2022-08-25T02:11:09.627Z,3.80
2022-08-25T02:12:10.050Z,4.00
2022-08-25T02:13:10.331Z,3.70
2022-08-25T02:14:10.525Z,3.40
2022-08-25T02:15:10.819Z,3.60
2022-08-25T02:16:11.109Z,3.40
2022-08-25T02:17:11.500Z,3.50
2022-08-25T02:18:11.716Z,3.70
2022-08-25T02:19:11.990Z,3.80
2022-08-25T02:20:12.220Z,3.60
2022-08-25T02:21:12.555Z,3.70
2022-08-25T02:22:12.813Z,3.70
2022-08-25T02:23:13.148Z,3.80
2022-08-25T02:24:13.507Z,3.80
2022-08-25T02:25:13.736Z,3.90
2022-08-25T02:26:13.959Z,3.60
2022-08-25T02:27:14.274Z,3.50
2022-08-25T02:28:14.557Z,3.80
2022-08-25T02:29:14.875Z,3.90
2022-08-25T02:30:15.077Z,3.70
2022-08-25T02:31:15.506Z,3.90
2022-08-25T02:32:15.754Z,3.90
2022-08-25T02:33:16.103Z,3.90
2022-08-25T02:34:16.358Z,4.00
2022-08-25T02:35:16.609Z,4.00
2022-08-25T02:36:16.870Z,3.90
2022-08-25T02:37:17.190Z,3.80
2022-08-25T02:38:17.405Z,3.90
2022-08-25T02:39:17.625Z,4.00
2022-08-25T02:40:17.945Z,3.90
2022-08-25T02:41:18.335Z,4.00
2022-08-25T02:42:18.503Z,3.90
2022-08-25T02:43:18.729Z,4.20
2022-08-25T02:44:19.011Z,4.40
2022-08-25T02:45:19.340Z,4.40
2022-08-25T02:46:19.645Z,4.30
2022-08-25T02:47:19.872Z,4.60
2022-08-25T02:48:21.174Z,4.50
2022-08-25T02:49:20.479Z,4.40
2022-08-25T02:50:20.752Z,4.50
2022-08-25T02:51:21.050Z,4.20
2022-08-25T02:52:21.389Z,4.60
2022-08-25T02:53:21.591Z,4.00
2022-08-25T02:54:21.965Z,4.50
2022-08-25T02:55:22.115Z,4.40
2022-08-25T02:56:22.360Z,4.40
2022-08-25T02:57:23.088Z,4.40
2022-08-25T02:58:22.900Z,4.50
2022-08-25T02:59:23.335Z,4.50
2022-08-25T03:00:23.609Z,4.50
2022-08-25T03:01:28.650Z,4.50
2022-08-25T03:02:25.181Z,4.50
2022-08-25T03:03:24.470Z,4.80
2022-08-25T03:04:24.946Z,4.70
2022-08-25T03:05:25.186Z,4.40
2022-08-25T03:06:25.371Z,4.90
2022-08-25T03:07:25.704Z,4.70
2022-08-25T03:08:26.013Z,4.50
2022-08-25T03:09:26.373Z,4.70
2022-08-25T03:10:26.607Z,4.50
2022-08-25T03:11:26.932Z,4.50
2022-08-25T03:12:27.199Z,4.40
2022-08-25T03:13:27.502Z,4.40
2022-08-25T03:14:27.773Z,4.80
2022-08-25T03:15:28.126Z,4.70
2022-08-25T03:16:28.531Z,4.40
2022-08-25T03:17:28.760Z,4.80
2022-08-25T03:18:29.082Z,4.50
2022-08-25T03:19:29.320Z,4.60
2022-08-25T03:20:29.595Z,4.70
2022-08-25T03:21:29.949Z,4.90
2022-08-25T03:22:30.355Z,4.70
2022-08-25T03:23:30.487Z,4.60
2022-08-25T03:24:30.857Z,4.50
2022-08-25T03:25:31.136Z,5.00
2022-08-25T03:26:31.501Z,5.30
2022-08-25T03:27:31.908Z,5.00
2022-08-25T03:28:32.060Z,4.80
2022-08-25T03:29:32.358Z,4.70
2022-08-25T03:30:32.627Z,4.60
2022-08-25T03:31:33.097Z,4.50
2022-08-25T03:32:33.212Z,4.60
2022-08-25T03:33:33.563Z,4.60
2022-08-25T03:34:33.800Z,4.50
2022-08-25T03:35:34.066Z,4.30
2022-08-25T03:36:34.403Z,4.30
2022-08-25T03:37:34.667Z,4.40
2022-08-25T03:38:35.037Z,4.50
2022-08-25T03:39:35.293Z,4.20
2022-08-25T03:40:35.542Z,4.40
2022-08-25T03:41:35.773Z,4.40
2022-08-25T03:42:36.083Z,4.50
2022-08-25T03:43:36.325Z,4.30
2022-08-25T03:44:36.670Z,4.20
2022-08-25T03:45:37.009Z,4.30
2022-08-25T03:46:37.314Z,4.30
2022-08-25T03:47:37.590Z,4.50
2022-08-25T03:48:37.889Z,4.40
2022-08-25T03:49:38.225Z,4.10
2022-08-25T03:50:38.507Z,4.20
2022-08-25T03:51:38.805Z,4.40
2022-08-25T03:52:42.421Z,4.20
2022-08-25T03:53:39.305Z,4.40
2022-08-25T03:54:39.621Z,4.40
2022-08-25T03:55:39.868Z,4.40
2022-08-25T03:56:40.193Z,4.40
2022-08-25T03:57:40.475Z,4.80
2022-08-25T03:58:40.795Z,4.50
2022-08-25T03:59:41.122Z,4.80
2022-08-25T04:00:41.319Z,4.90
2022-08-25T04:01:41.595Z,5.20
2022-08-25T04:02:41.897Z,4.50
2022-08-25T04:03:42.063Z,4.90
2022-08-25T04:04:42.378Z,7.00
2022-08-25T04:05:42.676Z,5.80
2022-08-25T04:06:42.963Z,5.60
2022-08-25T04:07:43.162Z,5.50
2022-08-25T04:08:43.483Z,5.90
2022-08-25T04:09:44.594Z,5.70
2022-08-25T04:10:43.967Z,6.00
2022-08-25T04:11:44.213Z,5.50
2022-08-25T04:12:44.477Z,5.90
2022-08-25T04:13:44.751Z,5.80
2022-08-25T04:14:44.964Z,6.20
2022-08-25T04:15:45.483Z,5.90
2022-08-25T04:16:45.628Z,5.90
2022-08-25T04:17:45.852Z,5.90
2022-08-25T04:18:46.103Z,6.10
2022-08-25T04:19:46.460Z,6.00
2022-08-25T04:20:46.964Z,5.80
2022-08-25T04:21:46.887Z,5.90
2022-08-25T04:22:47.331Z,5.90
2022-08-25T04:23:47.571Z,5.90
2022-08-25T04:24:47.754Z,6.20
2022-08-25T04:25:48.113Z,6.40
2022-08-25T04:26:48.401Z,5.90
2022-08-25T04:27:48.631Z,5.90
2022-08-25T04:28:48.865Z,6.20
2022-08-25T04:29:49.206Z,5.70
2022-08-25T04:30:52.114Z,6.00
2022-08-25T04:31:49.829Z,5.90
2022-08-25T04:32:50.029Z,5.70
2022-08-25T04:33:50.254Z,5.70
2022-08-25T04:34:50.467Z,5.70
2022-08-25T04:35:50.857Z,5.50
2022-08-25T04:36:52.707Z,5.10
2022-08-25T04:37:51.364Z,5.20
2022-08-25T04:38:51.599Z,5.20
2022-08-25T04:39:51.904Z,5.10
2022-08-25T04:40:52.088Z,5.10
2022-08-25T04:41:52.358Z,5.50
2022-08-25T04:42:52.588Z,5.40
2022-08-25T04:43:52.866Z,5.30
2022-08-25T04:44:53.074Z,5.00
2022-08-25T04:45:53.474Z,5.30
2022-08-25T04:46:53.744Z,6.40
2022-08-25T04:48:05.294Z,5.10
2022-08-25T04:48:55.286Z,5.40
2022-08-25T04:49:54.531Z,4.70
2022-08-25T04:50:54.753Z,4.40
2022-08-25T04:51:54.980Z,4.70
2022-08-25T04:52:55.327Z,4.40
2022-08-25T04:53:55.579Z,4.40
2022-08-25T04:54:55.825Z,4.60
2022-08-25T04:55:57.803Z,5.20
2022-08-25T04:56:58.271Z,5.00
2022-08-25T04:57:56.737Z,4.90
2022-08-25T04:58:57.082Z,5.50
2022-08-25T04:59:57.334Z,6.00
2022-08-25T05:00:57.595Z,5.60
2022-08-25T05:01:57.821Z,5.50
2022-08-25T05:02:58.192Z,5.40
2022-08-25T05:03:58.469Z,5.60
2022-08-25T05:04:58.746Z,4.80
2022-08-25T05:05:58.963Z,5.10
2022-08-25T05:06:59.190Z,5.20
2022-08-25T05:07:59.714Z,5.00
2022-08-25T05:08:59.820Z,5.40
2022-08-25T05:10:00.097Z,4.90
2022-08-25T05:11:00.363Z,5.30
2022-08-25T05:12:00.675Z,5.50
2022-08-25T05:13:00.932Z,5.80
2022-08-25T05:14:01.209Z,6.40
2022-08-25T05:15:02.100Z,5.70
2022-08-25T05:16:01.723Z,5.90
2022-08-25T05:17:02.056Z,5.30
2022-08-25T05:18:02.347Z,5.40
2022-08-25T05:19:02.555Z,5.70
2022-08-25T05:20:02.928Z,5.90
2022-08-25T05:21:03.185Z,5.40
2022-08-25T05:22:03.434Z,5.40
2022-08-25T05:23:03.681Z,5.20
2022-08-25T05:24:03.884Z,5.10
2022-08-25T05:25:04.230Z,4.60
2022-08-25T05:26:04.550Z,5.20
2022-08-25T05:27:04.837Z,5.30
2022-08-25T05:28:05.170Z,5.30
2022-08-25T05:29:05.299Z,5.50
2022-08-25T05:30:05.676Z,5.10
2022-08-25T05:31:06.073Z,5.50
2022-08-25T05:32:06.253Z,5.40
2022-08-25T05:33:06.413Z,5.50
2022-08-25T05:34:06.677Z,5.70
2022-08-25T05:35:06.911Z,5.90
2022-08-25T05:36:07.265Z,5.40
2022-08-25T05:37:11.643Z,5.80
2022-08-25T05:38:07.744Z,5.60
2022-08-25T05:39:09.623Z,5.90
2022-08-25T05:40:08.384Z,5.90
2022-08-25T05:41:08.629Z,6.00
2022-08-25T05:42:08.861Z,6.00
2022-08-25T05:43:09.119Z,6.00
2022-08-25T05:44:09.476Z,6.00
2022-08-25T05:45:09.639Z,6.00
2022-08-25T05:46:11.043Z,6.50
2022-08-25T05:47:10.303Z,6.10
2022-08-25T05:48:10.548Z,6.40
2022-08-25T05:49:10.799Z,6.80
2022-08-25T05:50:11.167Z,6.90
2022-08-25T05:51:11.353Z,6.40
2022-08-25T05:52:14.296Z,6.30
2022-08-25T05:53:12.978Z,6.50
2022-08-25T05:54:12.278Z,5.70
2022-08-25T05:55:12.465Z,6.60
2022-08-25T05:56:12.800Z,5.90
2022-08-25T05:57:13.189Z,5.70
2022-08-25T05:58:13.961Z,5.90
2022-08-25T05:59:13.823Z,5.70
2022-08-25T06:00:14.057Z,5.60
2022-08-25T06:01:14.348Z,10.20
2022-08-25T06:02:14.627Z,8.30
2022-08-25T06:03:14.959Z,8.70
2022-08-25T06:04:15.219Z,7.10
2022-08-25T06:05:15.420Z,6.40
2022-08-25T06:06:15.804Z,7.20
2022-08-25T06:07:16.087Z,7.50
2022-08-25T06:08:16.313Z,7.50
2022-08-25T06:09:16.698Z,7.10
2022-08-25T06:10:16.916Z,6.70
2022-08-25T06:11:17.150Z,6.50
2022-08-25T06:12:17.419Z,6.20
2022-08-25T06:13:17.731Z,6.00
2022-08-25T06:14:18.031Z,6.30
2022-08-25T06:15:18.506Z,6.40
2022-08-25T06:16:18.629Z,6.90
2022-08-25T06:17:18.887Z,6.10
2022-08-25T06:18:19.088Z,6.00
2022-08-25T06:19:19.495Z,6.10
2022-08-25T06:20:19.712Z,6.00
2022-08-25T06:21:19.951Z,5.80
2022-08-25T06:22:20.235Z,5.90
2022-08-25T06:23:20.477Z,5.40
2022-08-25T06:24:20.688Z,5.60
2022-08-25T06:25:21.045Z,5.70
2022-08-25T06:26:21.701Z,5.80
2022-08-25T06:27:21.403Z,5.80
2022-08-25T06:28:21.676Z,6.00
2022-08-25T06:29:21.958Z,5.90
2022-08-25T06:30:26.554Z,5.60
2022-08-25T06:31:23.477Z,5.80
2022-08-25T06:32:22.830Z,5.60
2022-08-25T06:33:22.996Z,6.10
2022-08-25T06:34:23.912Z,6.90
2022-08-25T06:35:23.529Z,6.40
2022-08-25T06:36:23.750Z,6.60
2022-08-25T06:37:25.404Z,7.30
2022-08-25T06:38:24.248Z,7.40
2022-08-25T06:39:24.527Z,7.00
2022-08-25T06:40:24.947Z,6.60
2022-08-25T06:41:25.031Z,6.50
2022-08-25T06:42:26.286Z,6.70
2022-08-25T06:43:25.545Z,6.50
2022-08-25T06:44:25.875Z,6.40
2022-08-25T06:45:26.157Z,5.70
2022-08-25T06:46:31.699Z,5.70
2022-08-25T06:47:27.642Z,5.50
2022-08-25T06:48:26.929Z,5.60
2022-08-25T06:49:27.199Z,5.80
2022-08-25T06:50:27.485Z,5.50
2022-08-25T06:51:27.675Z,5.80
2022-08-25T06:52:29.422Z,6.10
2022-08-25T06:53:28.221Z,6.20
2022-08-25T06:54:28.929Z,5.30
2022-08-25T06:55:28.764Z,5.60
2022-08-25T06:56:29.106Z,5.30
2022-08-25T06:57:29.338Z,5.20
2022-08-25T06:58:29.594Z,6.00
2022-08-25T06:59:32.204Z,5.50
2022-08-25T07:00:30.621Z,5.50
2022-08-25T07:01:31.250Z,5.10
2022-08-25T07:02:30.832Z,5.50
2022-08-25T07:03:30.934Z,5.20
2022-08-25T07:04:31.244Z,5.40
2022-08-25T07:05:43.512Z,5.80
2022-08-25T07:06:32.778Z,5.40
2022-08-25T07:07:32.763Z,5.40
2022-08-25T07:08:33.347Z,5.30
2022-08-25T07:09:35.313Z,5.50
2022-08-25T07:10:33.845Z,5.40
2022-08-25T07:11:33.094Z,5.60
2022-08-25T07:12:33.585Z,5.40
2022-08-25T07:13:33.733Z,5.50
2022-08-25T07:14:33.952Z,5.50
2022-08-25T07:15:34.261Z,5.40
2022-08-25T07:16:34.555Z,5.50
2022-08-25T07:17:34.794Z,5.80
2022-08-25T07:18:35.132Z,5.20
2022-08-25T07:19:35.837Z,5.50
2022-08-25T07:20:35.630Z,5.30
2022-08-25T07:21:36.023Z,5.80
2022-08-25T07:22:36.126Z,5.50
2022-08-25T07:23:36.361Z,5.60
2022-08-25T07:24:36.589Z,5.40
2022-08-25T07:25:36.835Z,5.30
2022-08-25T07:26:38.543Z,5.50
2022-08-25T07:27:37.409Z,5.70
2022-08-25T07:28:37.715Z,5.50
2022-08-25T07:29:42.629Z,5.40
2022-08-25T07:30:38.261Z,5.10
2022-08-25T07:31:38.469Z,5.40
2022-08-25T07:32:42.046Z,6.40
2022-08-25T07:33:39.025Z,5.20
2022-08-25T07:34:39.304Z,5.30
2022-08-25T07:35:39.529Z,4.80
2022-08-25T07:36:39.790Z,5.00
2022-08-25T07:37:48.863Z,5.30
2022-08-25T07:38:41.401Z,4.90
2022-08-25T07:39:40.653Z,5.20
2022-08-25T07:40:42.641Z,5.30
2022-08-25T07:41:41.319Z,5.30
2022-08-25T07:42:42.385Z,5.20
2022-08-25T07:43:41.798Z,5.40
2022-08-25T07:44:43.411Z,5.50
2022-08-25T07:45:49.553Z,5.20
2022-08-25T07:46:43.704Z,5.00
2022-08-25T07:47:42.871Z,4.90
2022-08-25T07:48:43.148Z,5.10
2022-08-25T07:49:44.362Z,4.90
2022-08-25T07:50:43.643Z,4.80
2022-08-25T07:52:04.580Z,4.60
2022-08-25T07:52:45.171Z,4.40
2022-08-25T07:53:45.481Z,4.60
2022-08-25T07:54:44.744Z,4.80
2022-08-25T07:55:45.114Z,4.60
2022-08-25T07:56:45.299Z,4.90
2022-08-25T07:57:45.577Z,5.00
2022-08-25T07:58:46.844Z,5.10
2022-08-25T07:59:46.193Z,5.00
2022-08-25T08:00:46.414Z,5.20
2022-08-25T08:01:46.716Z,5.10
2022-08-25T08:02:46.958Z,5.00
2022-08-25T08:03:50.515Z,5.20
2022-08-25T08:04:47.471Z,5.20
2022-08-25T08:05:47.747Z,5.10
2022-08-25T08:06:48.015Z,4.70
2022-08-25T08:07:48.262Z,4.80
2022-08-25T08:08:48.531Z,4.50
2022-08-25T08:09:53.062Z,4.70
2022-08-25T08:11:05.650Z,4.50
2022-08-25T08:11:53.638Z,4.40
2022-08-25T08:12:49.490Z,4.40
2022-08-25T08:13:50.793Z,4.40
2022-08-25T08:14:50.130Z,4.40
2022-08-25T08:15:50.434Z,4.50
2022-08-25T08:16:50.693Z,4.50
2022-08-25T08:17:50.913Z,4.20
2022-08-25T08:18:51.162Z,4.40
2022-08-25T08:19:51.447Z,4.30
2022-08-25T08:20:51.721Z,4.30
2022-08-25T08:21:52.906Z,4.80
2022-08-25T08:22:52.470Z,4.70
2022-08-25T08:23:58.682Z,4.60
2022-08-25T08:24:54.738Z,4.90
2022-08-25T08:25:53.133Z,4.60
2022-08-25T08:26:58.747Z,5.00
2022-08-25T08:27:54.888Z,4.80
2022-08-25T08:28:54.028Z,4.70
2022-08-25T08:29:54.293Z,4.50
2022-08-25T08:30:54.609Z,4.40
2022-08-25T08:31:54.892Z,4.40
2022-08-25T08:33:11.387Z,4.50
2022-08-25T08:33:56.654Z,4.70
2022-08-25T08:34:55.606Z,4.60
2022-08-25T08:35:55.878Z,4.20
2022-08-25T08:36:56.095Z,4.40
2022-08-25T08:37:56.318Z,4.40
2022-08-25T08:38:56.593Z,4.60
2022-08-25T08:39:56.873Z,4.40
2022-08-25T08:40:57.124Z,4.50
2022-08-25T08:42:12.679Z,4.80
2022-08-25T08:42:58.601Z,4.90
2022-08-25T08:43:57.934Z,4.60
2022-08-25T08:45:00.542Z,4.40
2022-08-25T08:45:58.619Z,4.60
2022-08-25T08:46:58.797Z,4.80
2022-08-25T08:47:59.054Z,5.00
2022-08-25T08:48:59.261Z,4.90
2022-08-25T08:49:59.465Z,4.80
2022-08-25T08:50:59.861Z,4.70
2022-08-25T08:52:00.120Z,5.00
2022-08-25T08:53:00.454Z,4.50
2022-08-25T08:54:00.641Z,4.70
2022-08-25T08:55:00.878Z,4.80
2022-08-25T08:56:01.114Z,4.90
2022-08-25T08:57:01.410Z,4.60
2022-08-25T08:58:01.645Z,4.60
2022-08-25T08:59:06.205Z,4.70
2022-08-25T09:00:02.137Z,4.60
2022-08-25T09:01:02.390Z,5.10
2022-08-25T09:02:02.866Z,4.90
2022-08-25T09:03:03.121Z,4.60
2022-08-25T09:04:03.340Z,4.60
2022-08-25T09:05:03.600Z,4.80
2022-08-25T09:06:03.833Z,4.70
2022-08-25T09:07:04.229Z,4.60
2022-08-25T09:08:04.458Z,4.70
2022-08-25T09:09:06.665Z,4.80
2022-08-25T09:10:05.015Z,4.70
2022-08-25T09:11:05.345Z,4.80
2022-08-25T09:12:06.704Z,5.60
2022-08-25T09:13:11.857Z,5.50
2022-08-25T09:14:07.198Z,4.90
2022-08-25T09:15:12.541Z,5.40
2022-08-25T09:16:07.785Z,4.70
2022-08-25T09:17:07.023Z,4.50
2022-08-25T09:18:08.480Z,4.30
2022-08-25T09:19:07.497Z,4.70
2022-08-25T09:20:18.914Z,5.20
2022-08-25T09:21:09.014Z,4.70
2022-08-25T09:22:34.000Z,4.60
2022-08-25T09:23:09.620Z,6.20
2022-08-25T09:24:08.875Z,4.60
2022-08-25T09:25:09.175Z,4.40
2022-08-25T09:26:09.445Z,4.10
2022-08-25T09:27:09.737Z,4.20
2022-08-25T09:28:09.987Z,4.00
2022-08-25T09:29:16.220Z,3.90
2022-08-25T09:30:11.622Z,4.10
2022-08-25T09:31:10.938Z,4.00
2022-08-25T09:32:11.217Z,4.20
2022-08-25T09:33:11.443Z,4.40
2022-08-25T09:34:11.778Z,4.20
2022-08-25T09:35:11.975Z,4.10
2022-08-25T09:36:12.259Z,4.00
2022-08-25T09:37:12.646Z,4.10
2022-08-25T09:38:12.744Z,4.20
2022-08-25T09:39:13.120Z,3.80
2022-08-25T09:40:13.428Z,4.10
2022-08-25T09:41:13.674Z,3.80
2022-08-25T09:42:14.096Z,3.90
2022-08-25T09:43:14.157Z,3.90
2022-08-25T09:44:14.491Z,4.00
2022-08-25T09:45:14.806Z,3.70
2022-08-25T09:46:15.064Z,4.00
2022-08-25T09:47:15.306Z,4.30
2022-08-25T09:48:15.543Z,4.00
2022-08-25T09:49:15.767Z,3.80
2022-08-25T09:50:18.565Z,4.40
2022-08-25T09:51:16.343Z,4.20
2022-08-25T09:52:16.605Z,4.10
2022-08-25T09:53:18.642Z,4.30
2022-08-25T09:54:17.280Z,4.60
2022-08-25T09:55:17.564Z,4.30
2022-08-25T09:56:17.831Z,4.20
2022-08-25T09:57:18.128Z,4.10
2022-08-25T09:58:18.374Z,4.40
2022-08-25T09:59:18.698Z,3.80
2022-08-25T10:00:18.946Z,4.10
2022-08-25T10:01:19.196Z,3.90
2022-08-25T10:02:19.586Z,4.20
2022-08-25T10:03:22.882Z,4.00
2022-08-25T10:04:21.082Z,4.40
2022-08-25T10:05:20.493Z,3.70
2022-08-25T10:06:20.662Z,3.80
2022-08-25T10:07:20.867Z,4.10
2022-08-25T10:08:24.636Z,3.90
2022-08-25T10:09:21.578Z,4.60
2022-08-25T10:10:21.987Z,4.00
2022-08-25T10:11:22.228Z,4.00
2022-08-25T10:12:22.437Z,4.00
2022-08-25T10:13:23.692Z,3.90
2022-08-25T10:14:22.952Z,4.30
2022-08-25T10:15:29.758Z,4.30
2022-08-25T10:16:25.081Z,4.90
2022-08-25T10:17:23.799Z,4.30
2022-08-25T10:18:24.089Z,3.90
2022-08-25T10:19:24.363Z,3.90
2022-08-25T10:20:24.644Z,4.40
2022-08-25T10:21:24.919Z,4.10
2022-08-25T10:22:25.225Z,4.10
2022-08-25T10:23:25.470Z,4.00
2022-08-25T10:24:25.876Z,3.90
2022-08-25T10:25:26.102Z,4.80
2022-08-25T10:26:26.346Z,4.00
2022-08-25T10:27:28.598Z,4.00
2022-08-25T10:28:26.818Z,3.90
2022-08-25T10:29:27.131Z,5.90
2022-08-25T10:30:27.465Z,4.30
2022-08-25T10:31:27.769Z,4.50
2022-08-25T10:32:27.935Z,3.90
2022-08-25T10:33:28.197Z,3.80
2022-08-25T10:34:28.465Z,4.00
2022-08-25T10:35:28.723Z,4.00
2022-08-25T10:36:29.010Z,3.80
2022-08-25T10:37:32.649Z,3.60
2022-08-25T10:38:33.476Z,4.00
2022-08-25T10:39:33.758Z,3.90
2022-08-25T10:40:31.050Z,3.70
2022-08-25T10:41:30.280Z,3.80
2022-08-25T10:42:30.554Z,3.80
2022-08-25T10:43:30.805Z,3.70
2022-08-25T10:44:31.110Z,3.60
2022-08-25T10:45:31.302Z,3.90
2022-08-25T10:46:31.681Z,3.60
2022-08-25T10:47:31.858Z,3.40
2022-08-25T10:48:32.063Z,3.50
2022-08-25T10:49:32.313Z,3.30
2022-08-25T10:50:32.563Z,3.50
2022-08-25T10:51:32.829Z,3.40
2022-08-25T10:52:33.083Z,3.60
2022-08-25T10:53:33.354Z,3.50
2022-08-25T10:54:33.666Z,4.50
2022-08-25T10:55:33.896Z,4.10
2022-08-25T10:56:35.158Z,3.80
2022-08-25T10:57:36.471Z,4.20
2022-08-25T10:58:34.785Z,3.90
2022-08-25T10:59:35.163Z,6.10
2022-08-25T11:00:35.270Z,5.50
2022-08-25T11:01:43.834Z,3.50
2022-08-25T11:02:36.859Z,3.80
2022-08-25T11:03:36.132Z,6.00
2022-08-25T11:04:36.607Z,4.60
2022-08-25T11:05:36.823Z,4.00
2022-08-25T11:06:37.014Z,3.40
2022-08-25T11:07:37.254Z,3.60
2022-08-25T11:08:37.488Z,3.70
2022-08-25T11:09:37.840Z,3.90
2022-08-25T11:10:38.187Z,3.90
2022-08-25T11:11:38.424Z,3.90
2022-08-25T11:12:38.728Z,4.10
2022-08-25T11:13:39.062Z,3.90
2022-08-25T11:14:39.365Z,3.90
2022-08-25T11:15:41.497Z,3.70
2022-08-25T11:16:40.951Z,3.80
2022-08-25T11:17:40.226Z,3.70
2022-08-25T11:18:40.441Z,3.80
2022-08-25T11:19:40.750Z,3.80
2022-08-25T11:20:41.061Z,4.00
2022-08-25T11:21:41.317Z,3.30
2022-08-25T11:22:41.586Z,3.20
2022-08-25T11:23:41.839Z,3.00
2022-08-25T11:24:42.092Z,3.20
2022-08-25T11:25:42.369Z,3.10
2022-08-25T11:26:42.648Z,3.00
2022-08-25T11:27:42.915Z,3.20
2022-08-25T11:28:43.181Z,3.60
2022-08-25T11:29:43.463Z,4.10
2022-08-25T11:30:43.822Z,3.40
2022-08-25T11:31:44.062Z,3.60
2022-08-25T11:32:44.313Z,5.60
2022-08-25T11:33:44.607Z,3.80
2022-08-25T11:34:44.875Z,4.40
2022-08-25T11:35:45.231Z,4.40
2022-08-25T11:36:45.800Z,4.30
2022-08-25T11:37:45.847Z,4.90
2022-08-25T11:38:47.802Z,4.50
2022-08-25T11:39:46.390Z,4.00
2022-08-25T11:40:50.053Z,4.10
2022-08-25T11:41:46.871Z,3.50
2022-08-25T11:42:47.111Z,3.70
2022-08-25T11:43:47.352Z,3.50
2022-08-25T11:44:53.194Z,4.00
2022-08-25T11:45:54.436Z,4.80
2022-08-25T11:46:49.187Z,3.70
2022-08-25T11:47:48.514Z,3.80
2022-08-25T11:48:48.755Z,3.70
2022-08-25T11:49:49.058Z,3.70
2022-08-25T11:50:49.330Z,3.70
2022-08-25T11:51:49.608Z,4.40
2022-08-25T11:52:50.977Z,3.80
2022-08-25T11:53:50.103Z,3.60
2022-08-25T11:54:50.456Z,3.70
2022-08-25T11:55:50.730Z,3.70
2022-08-25T11:56:50.998Z,3.60
2022-08-25T11:57:53.402Z,3.80
2022-08-25T11:58:51.627Z,3.70
2022-08-25T11:59:51.795Z,4.20
2022-08-25T12:00:55.032Z,4.00
2022-08-25T12:01:52.337Z,4.90
2022-08-25T12:02:52.728Z,4.00
2022-08-25T12:03:53.104Z,3.50
2022-08-25T12:04:53.717Z,3.60
2022-08-25T12:05:53.573Z,3.80
2022-08-25T12:06:53.851Z,3.80
2022-08-25T12:07:55.173Z,3.30
2022-08-25T12:08:57.616Z,3.90
2022-08-25T12:09:54.650Z,3.60
2022-08-25T12:10:54.883Z,4.10
2022-08-25T12:11:55.199Z,3.50
2022-08-25T12:12:55.471Z,3.80
2022-08-25T12:13:55.736Z,3.60
2022-08-25T12:14:56.039Z,4.00
2022-08-25T12:15:56.360Z,3.70
2022-08-25T12:16:56.730Z,3.50
2022-08-25T12:17:57.333Z,3.70
2022-08-25T12:18:57.209Z,3.60
2022-08-25T12:19:57.443Z,3.70
2022-08-25T12:20:57.673Z,3.90
2022-08-25T12:21:58.013Z,5.30
2022-08-25T12:22:58.220Z,7.50
2022-08-25T12:23:58.456Z,4.10
2022-08-25T12:24:58.801Z,4.00
2022-08-25T12:25:59.069Z,3.40
2022-08-25T12:26:59.341Z,3.30
2022-08-25T12:27:59.612Z,3.10
2022-08-25T12:28:59.920Z,3.20
2022-08-25T12:30:00.256Z,3.60
2022-08-25T12:31:00.451Z,3.40
2022-08-25T12:32:04.798Z,3.20
2022-08-25T12:33:00.998Z,3.70
2022-08-25T12:34:02.209Z,3.30
2022-08-25T12:35:01.474Z,3.50
2022-08-25T12:36:01.713Z,3.70
2022-08-25T12:37:02.094Z,3.40
2022-08-25T12:38:02.588Z,3.60
2022-08-25T12:39:02.548Z,4.00
2022-08-25T12:40:02.918Z,3.30
2022-08-25T12:41:03.168Z,3.60
2022-08-25T12:42:03.467Z,3.60
2022-08-25T12:43:04.051Z,3.60
2022-08-25T12:44:03.966Z,3.60
2022-08-25T12:45:04.321Z,4.50
2022-08-25T12:46:04.672Z,3.60
2022-08-25T12:47:04.921Z,3.40
2022-08-25T12:48:05.197Z,4.40
2022-08-25T12:49:05.558Z,3.40
2022-08-25T12:50:05.920Z,3.10
2022-08-25T12:51:06.122Z,4.90
2022-08-25T12:52:06.416Z,3.40
2022-08-25T12:53:06.955Z,3.70
2022-08-25T12:54:10.508Z,3.30
2022-08-25T12:55:07.309Z,3.70
2022-08-25T12:56:07.576Z,3.10
2022-08-25T12:57:07.955Z,3.40
2022-08-25T12:58:08.304Z,3.30
2022-08-25T12:59:08.626Z,3.80
2022-08-25T13:00:08.904Z,3.30
2022-08-25T13:01:09.378Z,4.20
2022-08-25T13:02:10.451Z,3.80
2022-08-25T13:03:10.125Z,3.40
2022-08-25T13:04:10.007Z,3.70
2022-08-25T13:05:10.206Z,3.60
2022-08-25T13:06:10.555Z,3.40
2022-08-25T13:07:10.819Z,3.30
2022-08-25T13:08:15.139Z,3.50
2022-08-25T13:09:11.489Z,3.60
2022-08-25T13:10:11.714Z,3.40
2022-08-25T13:11:11.976Z,3.80
2022-08-25T13:12:12.250Z,3.40
2022-08-25T13:13:12.602Z,3.30
2022-08-25T13:14:12.786Z,4.00
2022-08-25T13:15:13.132Z,3.80
2022-08-25T13:16:13.425Z,5.80
2022-08-25T13:17:13.641Z,3.30
2022-08-25T13:18:13.901Z,3.50
2022-08-25T13:19:14.174Z,3.30
2022-08-25T13:20:14.508Z,3.60
2022-08-25T13:21:14.715Z,3.70
2022-08-25T13:22:16.526Z,3.10